Talcum, Kentucky
Current Conditions -  °F | °C
As of 7:02 AM on Tuesday 27 Jan 2015 (Local Time) from KJKL Reporting Station
Overcast Overcast  
Wind Chill: 26°   Ceiling: 6000
Heat Index: 26°   Visibility: 10mi
Dew Point: 22°   Wind: 3mph
Humidity: 84%   Direction: 40°NE
Pressure: 29.9"   Gusts: NA
Location:  37.3318°N, 83.1697°W
Report Text: KJKL 271202Z AUTO 04003KT 10SM SCT023 SCT048 OVC060 M03/M06 A2990 RMK AO2 T10331056
Loading
Personal Weather Stations






























Interactive Weather Map New forecast layout! Learn more

10-Day Weather Forecast

Advertisements
Track Severe Weather on mobile